Time;durP1;ratioP1;P1;durP2;ratioP2;P2;SDS_P1;SDS_P2;PMS_P1;PMS_P2;Temp;Humidity;BMP_temperature;BMP_pressure;BME280_temperature;BME280_humidity;BME280_pressure;Samples;Min_cycle;Max_cycle;Signal;HPM_P1;HPM_P2
2022/08/30 00:03:21;;;;;;;13.57;8.00;;;;;;;;;;3364960;42;20174;-63
2022/08/30 00:05:47;;;;;;;15.63;8.30;;;;;;;;;;3366148;42;20123;-62
2022/08/30 00:08:14;;;;;;;15.90;8.15;;;;;;;;;;3366440;42;20140;-63
2022/08/30 00:10:40;;;;;;;14.55;7.72;;;;;;;;;;3366395;42;20099;-62
2022/08/30 00:13:06;;;;;;;16.60;8.45;;;;;;;;;;3365444;42;20183;-62
2022/08/30 00:15:32;;;;;;;18.60;8.20;;;;;;;;;;3365683;42;20100;-62
2022/08/30 00:17:58;;;;;;;15.63;8.10;;;;;;;;;;3364968;42;20139;-61
2022/08/30 00:20:27;;;;;;;16.30;8.38;;;;;;;;;;3365138;42;20083;-62
2022/08/30 00:22:53;;;;;;;16.25;8.52;;;;;;;;;;3364918;42;20090;-62
2022/08/30 00:25:19;;;;;;;15.53;8.10;;;;;;;;;;3365828;42;20470;-62
2022/08/30 00:27:45;;;;;;;14.95;8.57;;;;;;;;;;3364509;42;20100;-62
2022/08/30 00:30:12;;;;;;;14.07;7.88;;;;;;;;;;3364610;42;20096;-63
2022/08/30 00:32:38;;;;;;;14.82;8.13;;;;;;;;;;3364626;42;20091;-62
2022/08/30 00:35:05;;;;;;;14.40;7.93;;;;;;;;;;3365736;42;20103;-62
2022/08/30 00:37:31;;;;;;;18.27;8.00;;;;;;;;;;3365818;42;20080;-62
2022/08/30 00:39:57;;;;;;;16.02;8.23;;;;;;;;;;3366026;42;20198;-62
2022/08/30 00:42:23;;;;;;;12.55;7.38;;;;;;;;;;3365784;42;20103;-62
2022/08/30 00:44:49;;;;;;;15.27;8.10;;;;;;;;;;3364427;42;20168;-62
2022/08/30 00:47:15;;;;;;;16.23;8.17;;;;;;;;;;3366020;42;20092;-62
2022/08/30 00:49:43;;;;;;;15.55;8.15;;;;;;;;;;3364694;42;20095;-62
2022/08/30 00:52:11;;;;;;;17.63;8.55;;;;;;;;;;3364491;42;20114;-62
2022/08/30 00:54:37;;;;;;;15.32;7.85;;;;;;;;;;3364659;42;20140;-63
2022/08/30 00:57:03;;;;;;;14.30;8.25;;;;;;;;;;3364189;42;20167;-62
2022/08/30 00:59:29;;;;;;;16.73;8.30;;;;;;;;;;3365804;42;20127;-62
2022/08/30 01:01:55;;;;;;;16.10;8.45;;;;;;;;;;3356673;42;20121;-62
2022/08/30 01:04:22;;;;;;;18.50;8.43;;;;;;;;;;3363733;42;20572;-61
2022/08/30 01:06:48;;;;;;;14.43;8.30;;;;;;;;;;3364497;42;20083;-62
2022/08/30 01:09:14;;;;;;;14.90;7.93;;;;;;;;;;3365706;42;20131;-65
2022/08/30 01:11:40;;;;;;;13.52;7.97;;;;;;;;;;3364364;42;20084;-63
2022/08/30 01:14:06;;;;;;;19.65;8.40;;;;;;;;;;3364539;42;20147;-62
2022/08/30 01:16:33;;;;;;;17.13;7.57;;;;;;;;;;3364292;42;20107;-63
2022/08/30 01:18:59;;;;;;;17.90;8.30;;;;;;;;;;3364216;42;20645;-61
2022/08/30 01:21:47;;;;;;;13.77;8.07;;;;;;;;;;3364507;42;20095;-63
2022/08/30 01:24:13;;;;;;;15.85;8.25;;;;;;;;;;3363707;42;20096;-62
2022/08/30 01:26:39;;;;;;;15.35;8.10;;;;;;;;;;3360013;42;20088;-63
2022/08/30 01:29:10;;;;;;;15.90;7.38;;;;;;;;;;3362956;42;20091;-62
2022/08/30 01:31:36;;;;;;;14.65;7.75;;;;;;;;;;3353175;42;20111;-63
2022/08/30 01:34:04;;;;;;;18.30;7.47;;;;;;;;;;3362132;42;20510;-62
2022/08/30 01:36:30;;;;;;;13.57;7.57;;;;;;;;;;3360871;42;20088;-62
2022/08/30 01:38:56;;;;;;;15.48;8.65;;;;;;;;;;3364581;42;20095;-62
2022/08/30 01:41:26;;;;;;;16.20;7.90;;;;;;;;;;3365471;42;20185;-63
2022/08/30 01:43:54;;;;;;;13.93;7.50;;;;;;;;;;3360426;42;20106;-62
2022/08/30 01:46:23;;;;;;;16.10;7.82;;;;;;;;;;3367354;42;20615;-62
2022/08/30 01:48:49;;;;;;;15.93;8.07;;;;;;;;;;3354864;42;20098;-62
2022/08/30 01:51:15;;;;;;;14.93;7.63;;;;;;;;;;3359296;42;20103;-63
2022/08/30 01:53:41;;;;;;;13.00;6.80;;;;;;;;;;3364149;42;20167;-62
2022/08/30 01:56:08;;;;;;;15.53;7.57;;;;;;;;;;3356695;42;20104;-63
2022/08/30 01:58:34;;;;;;;15.57;7.65;;;;;;;;;;3358665;42;20144;-62
2022/08/30 02:01:02;;;;;;;14.23;7.60;;;;;;;;;;3359662;42;20091;-62
2022/08/30 02:03:31;;;;;;;18.20;7.75;;;;;;;;;;3358384;42;20099;-63
2022/08/30 02:06:05;;;;;;;12.27;7.47;;;;;;;;;;3367076;42;20084;-63
2022/08/30 02:08:31;;;;;;;16.37;7.60;;;;;;;;;;3367509;42;20088;-63
2022/08/30 02:10:58;;;;;;;15.57;7.72;;;;;;;;;;3366800;42;20474;-61
2022/08/30 02:13:25;;;;;;;16.98;7.80;;;;;;;;;;3367111;42;20150;-61
2022/08/30 02:15:53;;;;;;;14.18;7.80;;;;;;;;;;3366389;42;20092;-62
2022/08/30 02:18:19;;;;;;;16.73;8.10;;;;;;;;;;3366670;42;20203;-61
2022/08/30 02:20:45;;;;;;;15.57;7.93;;;;;;;;;;3365167;42;20092;-62
2022/08/30 02:23:11;;;;;;;13.65;8.00;;;;;;;;;;3365250;42;20107;-63
2022/08/30 02:25:37;;;;;;;14.52;8.25;;;;;;;;;;3365639;42;20284;-62
2022/08/30 02:28:04;;;;;;;16.95;8.13;;;;;;;;;;3367014;42;20084;-63
2022/08/30 02:30:30;;;;;;;18.23;7.97;;;;;;;;;;3362311;42;20517;-63
2022/08/30 02:32:56;;;;;;;13.75;7.70;;;;;;;;;;3362960;42;20702;-63
2022/08/30 02:35:22;;;;;;;14.80;7.65;;;;;;;;;;3366324;42;20521;-63
2022/08/30 02:37:48;;;;;;;18.42;8.02;;;;;;;;;;3359244;42;20605;-63
2022/08/30 02:40:14;;;;;;;14.25;7.70;;;;;;;;;;3359512;42;20234;-63
2022/08/30 02:42:40;;;;;;;18.10;8.03;;;;;;;;;;3365642;42;20190;-63
2022/08/30 02:45:07;;;;;;;18.30;7.82;;;;;;;;;;3360904;42;20126;-64
2022/08/30 02:47:33;;;;;;;15.05;7.80;;;;;;;;;;3362336;42;20147;-62
2022/08/30 02:49:59;;;;;;;17.05;8.13;;;;;;;;;;3360874;42;20079;-63
2022/08/30 02:52:25;;;;;;;16.48;8.27;;;;;;;;;;3351781;42;20111;-63
2022/08/30 02:54:51;;;;;;;19.10;8.03;;;;;;;;;;3357980;42;20169;-63
2022/08/30 02:57:17;;;;;;;17.63;8.15;;;;;;;;;;3363433;42;20510;-63
2022/08/30 02:59:44;;;;;;;15.43;8.00;;;;;;;;;;3362282;42;20083;-62
2022/08/30 03:02:10;;;;;;;15.60;8.15;;;;;;;;;;3361704;42;20090;-61
2022/08/30 03:04:38;;;;;;;19.23;8.30;;;;;;;;;;3366282;42;20118;-63
2022/08/30 03:07:05;;;;;;;15.23;8.48;;;;;;;;;;3364807;42;20119;-62
2022/08/30 03:09:35;;;;;;;16.10;8.65;;;;;;;;;;3365070;42;20155;-62
2022/08/30 03:12:01;;;;;;;21.35;9.10;;;;;;;;;;3365192;42;20088;-63
2022/08/30 03:14:27;;;;;;;18.02;8.55;;;;;;;;;;3366601;42;20098;-63
2022/08/30 03:16:53;;;;;;;16.93;8.37;;;;;;;;;;3366425;42;20227;-63
2022/08/30 03:19:19;;;;;;;13.80;7.70;;;;;;;;;;3364991;42;20169;-63
2022/08/30 03:21:45;;;;;;;13.93;7.63;;;;;;;;;;3364934;42;20126;-62
2022/08/30 03:24:12;;;;;;;16.15;8.35;;;;;;;;;;3366429;42;20662;-61
2022/08/30 03:26:38;;;;;;;16.42;8.45;;;;;;;;;;3365765;42;20102;-61
2022/08/30 03:29:04;;;;;;;14.57;8.07;;;;;;;;;;3365890;42;20091;-62
2022/08/30 03:31:30;;;;;;;19.85;8.70;;;;;;;;;;3366566;42;20096;-62
2022/08/30 03:33:56;;;;;;;18.55;8.27;;;;;;;;;;3366370;42;20158;-62
2022/08/30 03:36:22;;;;;;;17.58;8.32;;;;;;;;;;3365113;42;20150;-62
2022/08/30 03:38:48;;;;;;;15.07;8.13;;;;;;;;;;3366036;42;20075;-62
2022/08/30 03:41:16;;;;;;;14.55;8.13;;;;;;;;;;3365781;42;20096;-62
2022/08/30 03:43:42;;;;;;;16.38;8.00;;;;;;;;;;3364619;42;20087;-62
2022/08/30 03:46:09;;;;;;;17.45;8.05;;;;;;;;;;3366319;42;20173;-62
2022/08/30 03:48:35;;;;;;;15.53;7.57;;;;;;;;;;3364743;42;20234;-62
2022/08/30 03:51:01;;;;;;;15.05;8.25;;;;;;;;;;3366317;42;20504;-61
2022/08/30 03:53:27;;;;;;;14.95;8.15;;;;;;;;;;3365990;42;20641;-61
2022/08/30 03:55:53;;;;;;;13.82;7.82;;;;;;;;;;3365923;42;20103;-61
2022/08/30 03:58:19;;;;;;;17.80;8.15;;;;;;;;;;3366421;42;20584;-62
2022/08/30 04:00:45;;;;;;;14.03;7.67;;;;;;;;;;3366066;42;20103;-62
2022/08/30 04:03:14;;;;;;;14.50;7.95;;;;;;;;;;3365188;42;20096;-62
2022/08/30 04:05:40;;;;;;;16.05;8.00;;;;;;;;;;3366258;42;20084;-61
2022/08/30 04:08:06;;;;;;;16.45;7.97;;;;;;;;;;3366500;42;20225;-61
2022/08/30 04:10:33;;;;;;;16.53;8.10;;;;;;;;;;3365160;42;20100;-62
2022/08/30 04:12:58;;;;;;;18.70;8.10;;;;;;;;;;3366003;42;20092;-61
2022/08/30 04:15:24;;;;;;;15.10;8.00;;;;;;;;;;3366222;42;20088;-62
2022/08/30 04:17:52;;;;;;;14.32;7.80;;;;;;;;;;3365553;42;20088;-61
2022/08/30 04:20:18;;;;;;;16.93;8.33;;;;;;;;;;3365943;42;20092;-61
2022/08/30 04:22:44;;;;;;;19.95;8.15;;;;;;;;;;3366099;42;20611;-62
2022/08/30 04:25:11;;;;;;;14.10;8.38;;;;;;;;;;3365730;42;20103;-61
2022/08/30 04:27:37;;;;;;;16.35;7.47;;;;;;;;;;3364018;42;20521;-61
2022/08/30 04:30:04;;;;;;;14.90;7.77;;;;;;;;;;3365688;42;20597;-60
2022/08/30 04:32:30;;;;;;;13.57;7.32;;;;;;;;;;3364376;42;20143;-62
2022/08/30 04:34:57;;;;;;;18.02;8.07;;;;;;;;;;3365346;42;20107;-61
2022/08/30 04:37:23;;;;;;;13.80;7.93;;;;;;;;;;3365739;42;20104;-60
2022/08/30 04:39:49;;;;;;;16.90;7.75;;;;;;;;;;3365557;42;20096;-61
2022/08/30 04:42:15;;;;;;;14.87;7.83;;;;;;;;;;3365625;42;20702;-61
2022/08/30 04:44:41;;;;;;;15.57;8.25;;;;;;;;;;3364275;42;20778;-61
2022/08/30 04:47:08;;;;;;;14.45;7.53;;;;;;;;;;3366083;42;20196;-60
2022/08/30 04:49:35;;;;;;;17.80;8.30;;;;;;;;;;3365770;42;20092;-61
2022/08/30 04:52:01;;;;;;;16.50;8.27;;;;;;;;;;3365209;42;20104;-60
2022/08/30 04:54:27;;;;;;;24.77;9.35;;;;;;;;;;3363845;42;20651;-61
2022/08/30 04:56:53;;;;;;;15.27;7.82;;;;;;;;;;3364240;42;20202;-62
2022/08/30 04:59:20;;;;;;;18.02;8.10;;;;;;;;;;3365382;42;20098;-61
2022/08/30 05:01:47;;;;;;;19.38;8.30;;;;;;;;;;3365660;42;20160;-62
2022/08/30 05:04:14;;;;;;;17.30;8.10;;;;;;;;;;3363578;42;20215;-64
2022/08/30 05:06:40;;;;;;;15.20;8.30;;;;;;;;;;3363713;42;20127;-62
2022/08/30 05:09:06;;;;;;;14.32;8.38;;;;;;;;;;3363446;42;20080;-61
2022/08/30 05:11:32;;;;;;;17.48;8.50;;;;;;;;;;3364769;42;20087;-62
2022/08/30 05:13:58;;;;;;;17.27;8.55;;;;;;;;;;3362660;42;20092;-61
2022/08/30 05:16:24;;;;;;;16.47;8.13;;;;;;;;;;3363798;42;20143;-61
2022/08/30 05:18:51;;;;;;;15.15;8.43;;;;;;;;;;3359457;42;20084;-62
2022/08/30 05:21:19;;;;;;;17.17;8.70;;;;;;;;;;3360652;42;20103;-62
2022/08/30 05:23:45;;;;;;;17.23;7.90;;;;;;;;;;3362812;42;20142;-62
2022/08/30 05:26:19;;;;;;;15.80;7.97;;;;;;;;;;3365613;42;20119;-62
2022/08/30 05:28:45;;;;;;;18.73;8.60;;;;;;;;;;3366294;42;20084;-61
2022/08/30 05:31:31;;;;;;;18.52;8.60;;;;;;;;;;3366053;42;20503;-62
2022/08/30 05:33:57;;;;;;;15.18;8.50;;;;;;;;;;3364656;42;20475;-62
2022/08/30 05:36:26;;;;;;;16.00;8.38;;;;;;;;;;3359265;42;20188;-62
2022/08/30 05:38:52;;;;;;;17.97;8.60;;;;;;;;;;3361041;42;20527;-63
2022/08/30 05:41:19;;;;;;;17.17;8.48;;;;;;;;;;3359509;42;20084;-63
2022/08/30 05:43:45;;;;;;;15.85;8.60;;;;;;;;;;3361265;42;20089;-62
2022/08/30 05:46:12;;;;;;;16.65;8.32;;;;;;;;;;3361833;42;20170;-62
2022/08/30 05:48:39;;;;;;;17.05;8.68;;;;;;;;;;3360467;42;20135;-62
2022/08/30 05:51:16;;;;;;;15.77;8.93;;;;;;;;;;3361408;42;20096;-63
2022/08/30 05:53:42;;;;;;;14.48;8.60;;;;;;;;;;3360770;42;20191;-64
2022/08/30 05:56:10;;;;;;;13.60;8.63;;;;;;;;;;3362843;42;20530;-61
2022/08/30 05:58:36;;;;;;;16.45;8.50;;;;;;;;;;3366796;42;20151;-63
2022/08/30 06:01:03;;;;;;;17.63;9.07;;;;;;;;;;3366750;42;20157;-61
2022/08/30 06:03:31;;;;;;;15.82;8.30;;;;;;;;;;3365686;42;20148;-62
2022/08/30 06:05:58;;;;;;;20.20;8.70;;;;;;;;;;3365562;42;20176;-61
2022/08/30 06:08:24;;;;;;;17.88;8.77;;;;;;;;;;3366564;42;20080;-62
2022/08/30 06:11:09;;;;;;;14.70;7.93;;;;;;;;;;3366875;42;20106;-62
2022/08/30 06:13:35;;;;;;;16.87;8.30;;;;;;;;;;3366749;42;20092;-62
2022/08/30 06:16:01;;;;;;;15.65;8.60;;;;;;;;;;3366254;42;20161;-63
2022/08/30 06:18:26;;;;;;;14.18;8.18;;;;;;;;;;3366456;42;20135;-64
2022/08/30 06:20:52;;;;;;;17.42;8.43;;;;;;;;;;3366947;42;20111;-62
2022/08/30 06:23:18;;;;;;;15.40;8.37;;;;;;;;;;3367679;42;20076;-63
2022/08/30 06:25:45;;;;;;;15.82;8.18;;;;;;;;;;3366783;42;20110;-62
2022/08/30 06:28:11;;;;;;;18.70;8.88;;;;;;;;;;3366393;42;20079;-62
2022/08/30 06:30:38;;;;;;;17.38;9.15;;;;;;;;;;3366827;42;20095;-63
2022/08/30 06:33:04;;;;;;;18.37;8.87;;;;;;;;;;3363631;42;20186;-62
2022/08/30 06:35:31;;;;;;;19.40;9.57;;;;;;;;;;3365664;42;20092;-62
2022/08/30 06:37:58;;;;;;;15.82;8.32;;;;;;;;;;3366890;42;20083;-62
2022/08/30 06:40:24;;;;;;;15.73;9.05;;;;;;;;;;3365980;42;20170;-62
2022/08/30 06:42:50;;;;;;;17.30;8.90;;;;;;;;;;3366651;42;20090;-63
2022/08/30 06:45:17;;;;;;;16.40;9.00;;;;;;;;;;3366450;42;20098;-63
2022/08/30 06:47:43;;;;;;;18.35;8.85;;;;;;;;;;3366159;42;20088;-62
2022/08/30 06:50:09;;;;;;;15.65;8.70;;;;;;;;;;3366108;42;20142;-63
2022/08/30 06:52:36;;;;;;;13.50;8.40;;;;;;;;;;3366820;42;20139;-63
2022/08/30 06:55:02;;;;;;;15.85;8.73;;;;;;;;;;3365866;42;20143;-63
2022/08/30 06:57:28;;;;;;;14.20;8.50;;;;;;;;;;3364988;42;20636;-62
2022/08/30 06:59:55;;;;;;;15.65;8.57;;;;;;;;;;3363763;42;20092;-63
2022/08/30 07:02:21;;;;;;;14.60;8.48;;;;;;;;;;3365365;42;20092;-62
2022/08/30 07:04:47;;;;;;;15.48;9.02;;;;;;;;;;3362497;42;20098;-63
2022/08/30 07:07:13;;;;;;;15.67;8.27;;;;;;;;;;3364838;42;20099;-62
2022/08/30 07:09:43;;;;;;;14.50;8.37;;;;;;;;;;3365928;42;20417;-62
2022/08/30 07:12:10;;;;;;;17.20;8.65;;;;;;;;;;3364573;42;20091;-63
2022/08/30 07:14:36;;;;;;;13.80;8.10;;;;;;;;;;3365745;42;20143;-63
2022/08/30 07:18:49;;;;;;;14.77;8.10;;;;;;;;;;3365902;42;20103;-61
2022/08/30 07:19:48;;;;;;;14.23;8.17;;;;;;;;;;3364345;42;20102;-63
2022/08/30 07:22:14;;;;;;;13.77;7.72;;;;;;;;;;3361717;42;20088;-63
2022/08/30 07:24:40;;;;;;;15.40;8.05;;;;;;;;;;3359953;42;20088;-62
2022/08/30 07:27:06;;;;;;;11.95;7.50;;;;;;;;;;3362474;42;20188;-61
2022/08/30 07:29:32;;;;;;;17.00;7.73;;;;;;;;;;3363970;42;20114;-63
2022/08/30 07:31:58;;;;;;;13.25;8.13;;;;;;;;;;3364702;42;20135;-62
2022/08/30 07:34:24;;;;;;;13.18;7.40;;;;;;;;;;3364027;42;20147;-60
2022/08/30 07:36:50;;;;;;;17.13;8.15;;;;;;;;;;3362937;42;20096;-63
2022/08/30 07:39:16;;;;;;;13.33;6.87;;;;;;;;;;3362088;42;20592;-61
2022/08/30 07:41:43;;;;;;;16.80;7.03;;;;;;;;;;3366178;42;20095;-62
2022/08/30 07:44:09;;;;;;;14.77;7.18;;;;;;;;;;3364918;42;20570;-61
2022/08/30 07:46:36;;;;;;;14.05;6.75;;;;;;;;;;3361445;42;20084;-62
2022/08/30 07:49:02;;;;;;;11.50;6.10;;;;;;;;;;3361153;42;20111;-62
2022/08/30 07:51:28;;;;;;;11.43;6.10;;;;;;;;;;3361454;42;20088;-63
2022/08/30 07:53:55;;;;;;;11.45;6.05;;;;;;;;;;3362659;42;20488;-62
2022/08/30 07:56:21;;;;;;;11.00;5.57;;;;;;;;;;3361702;42;20194;-62
2022/08/30 07:58:47;;;;;;;12.45;6.22;;;;;;;;;;3362545;42;20203;-62
2022/08/30 08:01:13;;;;;;;15.32;5.65;;;;;;;;;;3351541;42;20162;-61
2022/08/30 08:03:40;;;;;;;18.00;6.23;;;;;;;;;;3361786;42;20175;-61
2022/08/30 08:06:07;;;;;;;17.52;5.68;;;;;;;;;;3361075;42;20139;-60
2022/08/30 08:08:33;;;;;;;15.40;6.15;;;;;;;;;;3358774;42;20586;-60
2022/08/30 08:11:14;;;;;;;14.20;6.15;;;;;;;;;;3360972;42;20582;-62
2022/08/30 08:13:41;;;;;;;15.05;5.78;;;;;;;;;;3359373;42;20080;-62
2022/08/30 08:16:07;;;;;;;14.57;6.67;;;;;;;;;;3364252;42;20167;-61
2022/08/30 08:18:33;;;;;;;13.77;6.72;;;;;;;;;;3363626;42;20680;-62
2022/08/30 08:20:59;;;;;;;14.30;6.50;;;;;;;;;;3364820;42;20139;-62
2022/08/30 08:23:25;;;;;;;14.45;7.15;;;;;;;;;;3364918;42;20088;-61
2022/08/30 08:25:51;;;;;;;13.83;6.33;;;;;;;;;;3363581;42;20099;-62
2022/08/30 08:28:18;;;;;;;14.07;6.60;;;;;;;;;;3365278;42;20091;-61
2022/08/30 08:30:44;;;;;;;15.52;6.00;;;;;;;;;;3363571;42;20602;-62
2022/08/30 08:33:12;;;;;;;11.95;5.38;;;;;;;;;;3364598;42;20462;-61
2022/08/30 08:35:37;;;;;;;12.60;5.32;;;;;;;;;;3365342;42;20110;-61
2022/08/30 08:38:03;;;;;;;11.60;5.37;;;;;;;;;;3360444;42;20144;-61
2022/08/30 08:40:34;;;;;;;16.38;5.93;;;;;;;;;;3359046;42;20479;-61
2022/08/30 08:43:11;;;;;;;11.23;5.03;;;;;;;;;;3360353;42;20593;-61
2022/08/30 08:46:00;;;;;;;14.40;5.22;;;;;;;;;;3361608;42;20138;-63
2022/08/30 08:48:38;;;;;;;13.68;5.65;;;;;;;;;;3366186;42;20151;-62
2022/08/30 08:53:55;;;;;;;13.15;5.80;;;;;;;;;;3366250;42;20096;-61
2022/08/30 08:56:22;;;;;;;13.80;5.05;;;;;;;;;;3365380;42;20139;-61
2022/08/30 08:58:52;;;;;;;11.57;5.28;;;;;;;;;;3365855;42;20590;-61
2022/08/30 09:01:20;;;;;;;11.35;5.20;;;;;;;;;;3366834;42;20563;-62
2022/08/30 09:03:47;;;;;;;12.57;5.20;;;;;;;;;;3366861;42;20091;-61
2022/08/30 09:06:40;;;;;;;12.70;5.78;;;;;;;;;;3367000;42;20103;-62
2022/08/30 09:09:06;;;;;;;13.85;5.15;;;;;;;;;;3366773;42;20166;-61
2022/08/30 09:11:33;;;;;;;13.02;4.90;;;;;;;;;;3367022;42;20092;-61
2022/08/30 09:13:59;;;;;;;13.23;5.07;;;;;;;;;;3359999;42;20102;-62
2022/08/30 09:16:44;;;;;;;13.17;5.70;;;;;;;;;;3365697;42;20760;-62
2022/08/30 09:19:10;;;;;;;11.88;4.88;;;;;;;;;;3366159;42;20158;-61
2022/08/30 09:21:36;;;;;;;13.52;5.15;;;;;;;;;;3366462;42;20103;-61
2022/08/30 09:24:09;;;;;;;11.43;5.20;;;;;;;;;;3363823;42;20096;-61
2022/08/30 09:26:36;;;;;;;15.63;4.67;;;;;;;;;;3366866;42;20239;-60
2022/08/30 09:29:03;;;;;;;18.67;5.25;;;;;;;;;;3366737;42;20206;-61
2022/08/30 09:31:31;;;;;;;15.52;4.65;;;;;;;;;;3365402;42;20172;-61
2022/08/30 09:34:02;;;;;;;11.50;4.00;;;;;;;;;;3365469;42;20096;-61
2022/08/30 09:36:42;;;;;;;14.80;4.63;;;;;;;;;;3367579;42;20096;-61
2022/08/30 09:39:19;;;;;;;12.30;4.00;;;;;;;;;;3361741;42;20166;-63
2022/08/30 09:41:48;;;;;;;15.90;4.05;;;;;;;;;;3364858;42;20605;-63
2022/08/30 09:44:26;;;;;;;14.63;3.90;;;;;;;;;;3365307;42;20561;-62
2022/08/30 09:46:57;;;;;;;25.35;4.63;;;;;;;;;;3366551;42;20092;-61
2022/08/30 09:49:28;;;;;;;13.15;3.88;;;;;;;;;;3369342;42;20546;-61
2022/08/30 09:52:22;;;;;;;15.43;3.57;;;;;;;;;;3367418;42;20095;-61
2022/08/30 09:55:09;;;;;;;14.40;3.58;;;;;;;;;;3366694;42;20096;-62
2022/08/30 09:57:57;;;;;;;12.48;3.60;;;;;;;;;;3365041;42;20099;-61
2022/08/30 10:00:27;;;;;;;14.48;4.22;;;;;;;;;;3365279;42;20135;-60
2022/08/30 10:03:12;;;;;;;11.98;3.33;;;;;;;;;;3366464;42;20096;-61
2022/08/30 10:06:03;;;;;;;11.93;3.90;;;;;;;;;;3364963;42;20100;-61
2022/08/30 10:08:34;;;;;;;12.35;3.70;;;;;;;;;;3362591;42;20091;-60
2022/08/30 10:11:22;;;;;;;15.38;3.55;;;;;;;;;;3374117;42;20610;-61
2022/08/30 10:14:36;;;;;;;16.48;3.38;;;;;;;;;;3359714;42;20092;-61
2022/08/30 10:17:25;;;;;;;16.52;3.85;;;;;;;;;;3364509;42;20811;-61
2022/08/30 10:20:05;;;;;;;78.07;6.43;;;;;;;;;;3365630;42;20137;-62
2022/08/30 10:22:37;;;;;;;26.48;5.63;;;;;;;;;;3365542;42;20102;-63
2022/08/30 10:25:12;;;;;;;14.60;3.60;;;;;;;;;;3365333;42;20104;-61
2022/08/30 10:28:18;;;;;;;11.65;3.63;;;;;;;;;;3356899;42;20172;-63
2022/08/30 10:30:51;;;;;;;13.50;3.65;;;;;;;;;;3362137;42;20103;-62
2022/08/30 10:33:22;;;;;;;13.40;3.80;;;;;;;;;;3353309;42;20118;-62
2022/08/30 10:35:51;;;;;;;14.13;3.47;;;;;;;;;;3365624;42;20091;-63
2022/08/30 10:38:34;;;;;;;13.48;3.90;;;;;;;;;;3365664;42;20088;-61
2022/08/30 10:41:27;;;;;;;17.92;4.30;;;;;;;;;;3361651;42;20100;-63
2022/08/30 10:44:05;;;;;;;26.50;4.20;;;;;;;;;;3358506;42;20105;-62
2022/08/30 10:47:01;;;;;;;32.77;5.00;;;;;;;;;;3366489;42;20107;-62
2022/08/30 10:49:29;;;;;;;20.58;4.43;;;;;;;;;;3366399;42;20104;-67
2022/08/30 10:52:40;;;;;;;16.40;3.95;;;;;;;;;;3364168;42;20143;-62
2022/08/30 10:55:28;;;;;;;14.75;3.60;;;;;;;;;;3359307;42;20114;-63
2022/08/30 10:58:01;;;;;;;17.90;3.90;;;;;;;;;;3356204;42;20132;-62
2022/08/30 11:00:29;;;;;;;17.20;3.57;;;;;;;;;;3349167;42;20103;-62
2022/08/30 11:03:22;;;;;;;10.15;3.10;;;;;;;;;;3363453;42;20104;-62
2022/08/30 11:06:19;;;;;;;20.65;3.20;;;;;;;;;;3357450;42;20116;-62
2022/08/30 11:08:48;;;;;;;15.30;2.95;;;;;;;;;;3360349;42;20598;-62
2022/08/30 11:11:40;;;;;;;13.27;3.03;;;;;;;;;;3366818;42;20123;-61
2022/08/30 11:14:06;;;;;;;21.70;3.10;;;;;;;;;;3364771;42;20110;-62
2022/08/30 11:16:37;;;;;;;16.70;2.50;;;;;;;;;;3363564;42;20096;-62
2022/08/30 11:19:06;;;;;;;9.05;2.28;;;;;;;;;;3363940;42;20663;-61
2022/08/30 11:21:39;;;;;;;10.80;2.20;;;;;;;;;;3356749;42;20139;-62
2022/08/30 11:24:19;;;;;;;12.02;2.40;;;;;;;;;;3366044;42;20088;-62
2022/08/30 11:26:47;;;;;;;14.73;2.40;;;;;;;;;;3361659;42;20147;-61
2022/08/30 11:29:25;;;;;;;15.18;2.42;;;;;;;;;;3366890;42;20149;-63
2022/08/30 11:31:52;;;;;;;18.65;2.67;;;;;;;;;;3366860;42;20098;-64
2022/08/30 11:34:46;;;;;;;10.57;2.75;;;;;;;;;;3365736;42;20144;-62
2022/08/30 11:37:32;;;;;;;21.42;3.00;;;;;;;;;;3368700;42;20566;-63
2022/08/30 11:40:18;;;;;;;25.47;2.97;;;;;;;;;;3366037;42;20131;-61
2022/08/30 11:42:48;;;;;;;13.32;2.10;;;;;;;;;;3357861;42;20177;-62
2022/08/30 11:45:23;;;;;;;11.38;1.65;;;;;;;;;;3364022;42;20513;-61
2022/08/30 11:47:50;;;;;;;10.32;1.60;;;;;;;;;;3365442;42;20091;-61
2022/08/30 11:50:49;;;;;;;15.73;1.73;;;;;;;;;;3362996;42;20641;-62
2022/08/30 11:53:17;;;;;;;13.50;1.70;;;;;;;;;;3363321;42;20193;-61
2022/08/30 11:56:13;;;;;;;8.10;1.60;;;;;;;;;;3366535;42;20107;-62
2022/08/30 11:58:41;;;;;;;9.48;1.60;;;;;;;;;;3351261;42;20154;-62
2022/08/30 12:01:19;;;;;;;11.30;1.70;;;;;;;;;;3365121;42;20692;-63
2022/08/30 12:03:54;;;;;;;11.90;2.13;;;;;;;;;;3365436;42;20531;-62
2022/08/30 12:07:03;;;;;;;8.37;1.50;;;;;;;;;;3366431;42;20547;-61
2022/08/30 12:09:32;;;;;;;12.50;1.65;;;;;;;;;;3361709;42;20160;-62
2022/08/30 12:12:05;;;;;;;9.60;1.70;;;;;;;;;;3364798;42;20576;-62
2022/08/30 12:14:53;;;;;;;8.85;1.40;;;;;;;;;;3363737;42;20151;-63
2022/08/30 12:20:25;;;;;;;8.43;1.47;;;;;;;;;;3357702;42;20159;-62
2022/08/30 12:22:51;;;;;;;10.32;1.60;;;;;;;;;;3363840;42;20088;-63
2022/08/30 12:25:36;;;;;;;12.40;1.65;;;;;;;;;;3364191;42;20088;-61
2022/08/30 12:28:09;;;;;;;6.72;1.50;;;;;;;;;;3363825;42;20092;-62
2022/08/30 12:30:38;;;;;;;7.50;1.60;;;;;;;;;;3364173;42;20166;-63
2022/08/30 12:33:05;;;;;;;8.00;1.50;;;;;;;;;;3365446;42;20119;-61
2022/08/30 12:35:31;;;;;;;7.35;1.50;;;;;;;;;;3365498;42;20160;-63
2022/08/30 12:38:04;;;;;;;8.50;1.50;;;;;;;;;;3364233;42;20123;-62
2022/08/30 12:40:33;;;;;;;10.25;1.50;;;;;;;;;;3365304;42;20088;-61
2022/08/30 12:43:04;;;;;;;12.03;1.53;;;;;;;;;;3364003;42;20517;-62
2022/08/30 12:45:41;;;;;;;6.95;1.63;;;;;;;;;;3363781;42;20097;-63
2022/08/30 12:48:11;;;;;;;11.85;1.73;;;;;;;;;;3362016;42;20092;-63
2022/08/30 12:50:47;;;;;;;11.00;1.70;;;;;;;;;;3361456;42;20102;-64
2022/08/30 12:53:13;;;;;;;17.00;2.05;;;;;;;;;;3358807;42;20649;-62
2022/08/30 12:56:08;;;;;;;6.67;1.37;;;;;;;;;;3350990;42;20092;-63
2022/08/30 12:58:34;;;;;;;8.23;1.80;;;;;;;;;;3357469;42;20092;-62
2022/08/30 13:01:32;;;;;;;12.90;1.80;;;;;;;;;;3360642;42;20095;-64
2022/08/30 13:04:17;;;;;;;8.40;1.50;;;;;;;;;;3368195;42;20106;-62
2022/08/30 13:06:54;;;;;;;8.87;1.70;;;;;;;;;;3360992;42;20079;-64
2022/08/30 13:09:41;;;;;;;10.45;1.90;;;;;;;;;;3363831;42;20102;-61
2022/08/30 13:12:10;;;;;;;7.28;1.50;;;;;;;;;;3363826;42;20559;-62
2022/08/30 13:14:41;;;;;;;10.23;1.80;;;;;;;;;;3363984;42;20102;-61
2022/08/30 13:17:22;;;;;;;8.27;2.03;;;;;;;;;;3364156;42;20695;-62
2022/08/30 13:19:58;;;;;;;8.47;2.10;;;;;;;;;;3363270;42;20586;-62
2022/08/30 13:22:31;;;;;;;13.95;2.55;;;;;;;;;;3364002;42;20116;-63
2022/08/30 13:24:57;;;;;;;16.45;2.58;;;;;;;;;;3362336;42;20568;-60
2022/08/30 13:27:23;;;;;;;7.70;2.40;;;;;;;;;;3362516;42;21030;-62
2022/08/30 13:29:49;;;;;;;9.88;2.50;;;;;;;;;;3364660;42;20131;-60
2022/08/30 13:32:16;;;;;;;10.10;3.47;;;;;;;;;;3364895;42;20571;-60
2022/08/30 13:34:42;;;;;;;14.80;3.85;;;;;;;;;;3365215;42;20102;-62
2022/08/30 13:37:11;;;;;;;22.65;4.55;;;;;;;;;;3365067;42;20095;-61
2022/08/30 13:39:37;;;;;;;13.68;3.78;;;;;;;;;;3364474;42;20088;-62
2022/08/30 13:42:03;;;;;;;17.85;5.68;;;;;;;;;;3365353;42;20095;-61
2022/08/30 13:44:29;;;;;;;13.00;2.80;;;;;;;;;;3365830;42;20226;-61
2022/08/30 13:46:56;;;;;;;11.10;3.13;;;;;;;;;;3365975;42;20578;-60
2022/08/30 13:49:27;;;;;;;12.82;2.50;;;;;;;;;;3366181;42;20088;-61
2022/08/30 13:51:53;;;;;;;12.00;2.85;;;;;;;;;;3366286;42;20091;-60
2022/08/30 13:54:23;;;;;;;19.70;3.43;;;;;;;;;;3365073;42;20199;-60
2022/08/30 13:56:50;;;;;;;10.48;2.80;;;;;;;;;;3366098;42;20092;-61
2022/08/30 13:59:16;;;;;;;12.25;3.00;;;;;;;;;;3366630;42;20088;-61
2022/08/30 14:01:42;;;;;;;11.38;2.80;;;;;;;;;;3365175;42;20115;-60
2022/08/30 14:04:08;;;;;;;11.15;3.10;;;;;;;;;;3366047;42;20095;-62
2022/08/30 14:06:34;;;;;;;8.30;2.70;;;;;;;;;;3366019;42;20111;-61
2022/08/30 14:09:01;;;;;;;11.70;2.90;;;;;;;;;;3364605;42;20099;-62
2022/08/30 14:11:27;;;;;;;10.02;3.00;;;;;;;;;;3364394;42;20143;-61
2022/08/30 14:13:53;;;;;;;14.18;3.38;;;;;;;;;;3360934;42;20094;-61
2022/08/30 14:16:19;;;;;;;13.67;3.17;;;;;;;;;;3364459;42;20166;-61
2022/08/30 14:18:45;;;;;;;12.77;3.13;;;;;;;;;;3365873;42;20770;-61
2022/08/30 14:21:11;;;;;;;12.07;2.80;;;;;;;;;;3366552;42;20513;-62
2022/08/30 14:23:37;;;;;;;12.90;3.05;;;;;;;;;;3365839;42;20147;-61
2022/08/30 14:26:04;;;;;;;16.90;3.10;;;;;;;;;;3365166;42;20130;-62
2022/08/30 14:28:30;;;;;;;16.40;3.00;;;;;;;;;;3364923;42;20105;-62
2022/08/30 14:30:56;;;;;;;12.43;3.15;;;;;;;;;;3366328;42;20096;-61
2022/08/30 14:33:22;;;;;;;9.00;3.25;;;;;;;;;;3365967;42;20107;-61
2022/08/30 14:35:48;;;;;;;12.93;3.00;;;;;;;;;;3366153;42;20775;-61
2022/08/30 14:38:14;;;;;;;12.53;3.33;;;;;;;;;;3366609;42;20099;-61
2022/08/30 14:40:40;;;;;;;14.93;3.22;;;;;;;;;;3366494;42;20222;-61
2022/08/30 14:43:06;;;;;;;15.70;3.15;;;;;;;;;;3366559;42;20364;-60
2022/08/30 14:45:32;;;;;;;13.02;3.20;;;;;;;;;;3366041;42;20518;-61
2022/08/30 14:48:01;;;;;;;11.97;3.23;;;;;;;;;;3366866;42;20546;-60
2022/08/30 14:50:27;;;;;;;13.82;3.83;;;;;;;;;;3366081;42;20139;-61
2022/08/30 14:52:53;;;;;;;13.82;3.38;;;;;;;;;;3364664;42;20177;-60
2022/08/30 14:55:19;;;;;;;11.90;3.53;;;;;;;;;;3366446;42;20146;-62